sensor_id;sensor_type;location;lat;lon;timestamp;P1;durP1;ratioP1;P2;durP2;ratioP2
65583;SDS011;62116;43.582;1.470;2022-12-07T00:01:37;22.88;;;11.90;;
65583;SDS011;62116;43.582;1.470;2022-12-07T00:04:04;23.88;;;11.93;;
65583;SDS011;62116;43.582;1.470;2022-12-07T00:06:34;23.13;;;12.55;;
65583;SDS011;62116;43.582;1.470;2022-12-07T00:09:01;33.42;;;16.48;;
65583;SDS011;62116;43.582;1.470;2022-12-07T00:11:27;29.35;;;13.68;;
65583;SDS011;62116;43.582;1.470;2022-12-07T00:13:53;24.70;;;12.60;;
65583;SDS011;62116;43.582;1.470;2022-12-07T00:16:21;22.05;;;11.32;;
65583;SDS011;62116;43.582;1.470;2022-12-07T00:18:48;20.75;;;11.23;;
65583;SDS011;62116;43.582;1.470;2022-12-07T00:21:24;23.50;;;11.32;;
65583;SDS011;62116;43.582;1.470;2022-12-07T00:26:22;25.23;;;11.82;;
65583;SDS011;62116;43.582;1.470;2022-12-07T00:28:53;24.15;;;11.63;;
65583;SDS011;62116;43.582;1.470;2022-12-07T00:31:21;22.48;;;11.95;;
65583;SDS011;62116;43.582;1.470;2022-12-07T00:33:49;22.20;;;11.98;;
65583;SDS011;62116;43.582;1.470;2022-12-07T00:36:16;22.42;;;12.02;;
65583;SDS011;62116;43.582;1.470;2022-12-07T00:38:43;23.23;;;12.35;;
65583;SDS011;62116;43.582;1.470;2022-12-07T00:41:13;21.13;;;11.50;;
65583;SDS011;62116;43.582;1.470;2022-12-07T00:43:40;19.00;;;11.00;;
65583;SDS011;62116;43.582;1.470;2022-12-07T00:46:07;23.50;;;11.75;;
65583;SDS011;62116;43.582;1.470;2022-12-07T00:48:32;23.98;;;11.95;;
65583;SDS011;62116;43.582;1.470;2022-12-07T00:50:58;21.85;;;12.02;;
65583;SDS011;62116;43.582;1.470;2022-12-07T00:53:25;21.73;;;11.98;;
65583;SDS011;62116;43.582;1.470;2022-12-07T00:55:51;20.10;;;11.43;;
65583;SDS011;62116;43.582;1.470;2022-12-07T00:58:17;22.85;;;11.57;;
65583;SDS011;62116;43.582;1.470;2022-12-07T01:00:43;23.25;;;11.68;;
65583;SDS011;62116;43.582;1.470;2022-12-07T01:03:10;24.15;;;12.15;;
65583;SDS011;62116;43.582;1.470;2022-12-07T01:05:37;21.92;;;12.10;;
65583;SDS011;62116;43.582;1.470;2022-12-07T01:08:02;20.40;;;11.88;;
65583;SDS011;62116;43.582;1.470;2022-12-07T01:10:28;25.20;;;12.25;;
65583;SDS011;62116;43.582;1.470;2022-12-07T01:12:55;22.52;;;11.63;;
65583;SDS011;62116;43.582;1.470;2022-12-07T01:15:22;19.95;;;11.40;;
65583;SDS011;62116;43.582;1.470;2022-12-07T01:17:47;21.38;;;11.50;;
65583;SDS011;62116;43.582;1.470;2022-12-07T01:20:13;22.80;;;12.50;;
65583;SDS011;62116;43.582;1.470;2022-12-07T01:22:40;23.52;;;12.93;;
65583;SDS011;62116;43.582;1.470;2022-12-07T01:25:07;27.17;;;12.93;;
65583;SDS011;62116;43.582;1.470;2022-12-07T01:27:34;23.77;;;12.63;;
65583;SDS011;62116;43.582;1.470;2022-12-07T01:30:01;25.42;;;12.00;;
65583;SDS011;62116;43.582;1.470;2022-12-07T01:32:28;23.80;;;12.40;;
65583;SDS011;62116;43.582;1.470;2022-12-07T01:34:54;23.95;;;12.38;;
65583;SDS011;62116;43.582;1.470;2022-12-07T01:37:19;25.63;;;12.60;;
65583;SDS011;62116;43.582;1.470;2022-12-07T01:39:44;23.23;;;12.13;;
65583;SDS011;62116;43.582;1.470;2022-12-07T01:42:13;27.02;;;12.27;;
65583;SDS011;62116;43.582;1.470;2022-12-07T01:47:43;25.55;;;12.77;;
65583;SDS011;62116;43.582;1.470;2022-12-07T01:50:10;25.58;;;12.38;;
65583;SDS011;62116;43.582;1.470;2022-12-07T01:52:36;21.88;;;11.82;;
65583;SDS011;62116;43.582;1.470;2022-12-07T01:55:04;23.77;;;11.52;;
65583;SDS011;62116;43.582;1.470;2022-12-07T01:57:34;21.30;;;11.45;;
65583;SDS011;62116;43.582;1.470;2022-12-07T02:00:02;24.42;;;11.77;;
65583;SDS011;62116;43.582;1.470;2022-12-07T02:02:31;22.55;;;11.50;;
65583;SDS011;62116;43.582;1.470;2022-12-07T02:04:59;21.75;;;11.40;;
65583;SDS011;62116;43.582;1.470;2022-12-07T02:07:26;22.48;;;11.80;;
65583;SDS011;62116;43.582;1.470;2022-12-07T02:09:52;19.33;;;10.85;;
65583;SDS011;62116;43.582;1.470;2022-12-07T02:12:18;20.70;;;10.27;;
65583;SDS011;62116;43.582;1.470;2022-12-07T02:14:44;19.80;;;10.82;;
65583;SDS011;62116;43.582;1.470;2022-12-07T02:17:15;22.17;;;10.38;;
65583;SDS011;62116;43.582;1.470;2022-12-07T02:26:44;17.38;;;9.25;;
65583;SDS011;62116;43.582;1.470;2022-12-07T02:31:34;20.13;;;9.65;;
65583;SDS011;62116;43.582;1.470;2022-12-07T02:34:11;16.95;;;9.30;;
65583;SDS011;62116;43.582;1.470;2022-12-07T02:39:22;16.65;;;8.90;;
65583;SDS011;62116;43.582;1.470;2022-12-07T02:41:55;17.27;;;9.52;;
65583;SDS011;62116;43.582;1.470;2022-12-07T02:44:26;17.55;;;9.63;;
65583;SDS011;62116;43.582;1.470;2022-12-07T02:47:04;17.90;;;9.10;;
65583;SDS011;62116;43.582;1.470;2022-12-07T02:49:32;17.05;;;8.93;;
65583;SDS011;62116;43.582;1.470;2022-12-07T02:51:58;16.30;;;9.00;;
65583;SDS011;62116;43.582;1.470;2022-12-07T02:54:23;19.30;;;9.57;;
65583;SDS011;62116;43.582;1.470;2022-12-07T02:57:32;17.20;;;9.48;;
65583;SDS011;62116;43.582;1.470;2022-12-07T03:00:11;18.77;;;8.65;;
65583;SDS011;62116;43.582;1.470;2022-12-07T03:02:55;18.17;;;8.75;;
65583;SDS011;62116;43.582;1.470;2022-12-07T03:08:13;18.17;;;8.73;;
65583;SDS011;62116;43.582;1.470;2022-12-07T03:13:37;19.33;;;9.95;;
65583;SDS011;62116;43.582;1.470;2022-12-07T03:16:15;14.68;;;8.68;;
65583;SDS011;62116;43.582;1.470;2022-12-07T03:18:45;21.73;;;9.73;;
65583;SDS011;62116;43.582;1.470;2022-12-07T03:21:18;20.38;;;10.10;;
65583;SDS011;62116;43.582;1.470;2022-12-07T03:23:49;20.15;;;9.90;;
65583;SDS011;62116;43.582;1.470;2022-12-07T03:26:18;19.38;;;9.77;;
65583;SDS011;62116;43.582;1.470;2022-12-07T03:28:49;16.45;;;9.52;;
65583;SDS011;62116;43.582;1.470;2022-12-07T03:33:47;19.88;;;10.73;;
65583;SDS011;62116;43.582;1.470;2022-12-07T03:41:40;30.02;;;14.65;;
65583;SDS011;62116;43.582;1.470;2022-12-07T03:44:05;26.85;;;14.75;;
65583;SDS011;62116;43.582;1.470;2022-12-07T03:46:36;31.25;;;15.43;;
65583;SDS011;62116;43.582;1.470;2022-12-07T03:55:00;33.05;;;17.17;;
65583;SDS011;62116;43.582;1.470;2022-12-07T03:57:31;33.88;;;18.05;;
65583;SDS011;62116;43.582;1.470;2022-12-07T03:59:58;36.72;;;18.48;;
65583;SDS011;62116;43.582;1.470;2022-12-07T04:02:25;34.55;;;17.58;;
65583;SDS011;62116;43.582;1.470;2022-12-07T04:04:52;31.67;;;17.35;;
65583;SDS011;62116;43.582;1.470;2022-12-07T04:07:18;33.70;;;18.10;;
65583;SDS011;62116;43.582;1.470;2022-12-07T04:09:43;34.33;;;18.45;;
65583;SDS011;62116;43.582;1.470;2022-12-07T04:12:09;34.30;;;18.80;;
65583;SDS011;62116;43.582;1.470;2022-12-07T04:14:35;33.15;;;18.38;;
65583;SDS011;62116;43.582;1.470;2022-12-07T04:17:00;36.78;;;17.92;;
65583;SDS011;62116;43.582;1.470;2022-12-07T04:19:27;35.83;;;18.40;;
65583;SDS011;62116;43.582;1.470;2022-12-07T04:21:54;33.58;;;17.63;;
65583;SDS011;62116;43.582;1.470;2022-12-07T04:24:21;30.70;;;18.02;;
65583;SDS011;62116;43.582;1.470;2022-12-07T04:26:47;34.03;;;17.95;;
65583;SDS011;62116;43.582;1.470;2022-12-07T04:29:13;36.83;;;17.50;;
65583;SDS011;62116;43.582;1.470;2022-12-07T04:31:39;33.35;;;17.63;;
65583;SDS011;62116;43.582;1.470;2022-12-07T04:34:05;35.85;;;18.27;;
65583;SDS011;62116;43.582;1.470;2022-12-07T04:36:30;33.95;;;18.25;;
65583;SDS011;62116;43.582;1.470;2022-12-07T04:38:56;33.05;;;18.08;;
65583;SDS011;62116;43.582;1.470;2022-12-07T04:41:22;36.35;;;18.15;;
65583;SDS011;62116;43.582;1.470;2022-12-07T04:44:01;30.80;;;17.90;;
65583;SDS011;62116;43.582;1.470;2022-12-07T04:46:29;32.03;;;18.23;;
65583;SDS011;62116;43.582;1.470;2022-12-07T04:48:56;34.88;;;18.65;;
65583;SDS011;62116;43.582;1.470;2022-12-07T04:51:24;33.20;;;17.33;;
65583;SDS011;62116;43.582;1.470;2022-12-07T04:53:51;34.10;;;18.23;;
65583;SDS011;62116;43.582;1.470;2022-12-07T04:56:17;32.63;;;18.23;;
65583;SDS011;62116;43.582;1.470;2022-12-07T04:58:43;32.28;;;18.02;;
65583;SDS011;62116;43.582;1.470;2022-12-07T05:01:10;32.95;;;17.55;;
65583;SDS011;62116;43.582;1.470;2022-12-07T05:03:39;33.58;;;18.60;;
65583;SDS011;62116;43.582;1.470;2022-12-07T05:06:05;34.55;;;18.67;;
65583;SDS011;62116;43.582;1.470;2022-12-07T05:08:31;36.08;;;18.70;;
65583;SDS011;62116;43.582;1.470;2022-12-07T05:10:58;32.92;;;18.60;;
65583;SDS011;62116;43.582;1.470;2022-12-07T05:13:23;28.10;;;17.40;;
65583;SDS011;62116;43.582;1.470;2022-12-07T05:15:49;30.90;;;17.33;;
65583;SDS011;62116;43.582;1.470;2022-12-07T05:18:14;32.50;;;17.92;;
65583;SDS011;62116;43.582;1.470;2022-12-07T05:20:40;34.70;;;18.52;;
65583;SDS011;62116;43.582;1.470;2022-12-07T05:23:07;31.88;;;17.83;;
65583;SDS011;62116;43.582;1.470;2022-12-07T05:25:35;33.13;;;18.08;;
65583;SDS011;62116;43.582;1.470;2022-12-07T05:28:08;33.25;;;17.27;;
65583;SDS011;62116;43.582;1.470;2022-12-07T05:30:34;31.95;;;17.70;;
65583;SDS011;62116;43.582;1.470;2022-12-07T05:32:59;29.80;;;17.33;;
65583;SDS011;62116;43.582;1.470;2022-12-07T05:35:25;30.73;;;17.50;;
65583;SDS011;62116;43.582;1.470;2022-12-07T05:37:50;33.40;;;17.38;;
65583;SDS011;62116;43.582;1.470;2022-12-07T05:40:16;31.77;;;17.58;;
65583;SDS011;62116;43.582;1.470;2022-12-07T05:42:41;31.80;;;16.65;;
65583;SDS011;62116;43.582;1.470;2022-12-07T05:45:08;30.42;;;17.50;;
65583;SDS011;62116;43.582;1.470;2022-12-07T05:47:34;31.50;;;16.63;;
65583;SDS011;62116;43.582;1.470;2022-12-07T05:50:00;29.23;;;16.23;;
65583;SDS011;62116;43.582;1.470;2022-12-07T05:52:26;33.05;;;16.85;;
65583;SDS011;62116;43.582;1.470;2022-12-07T05:54:51;31.25;;;16.73;;
65583;SDS011;62116;43.582;1.470;2022-12-07T05:57:17;29.90;;;17.40;;
65583;SDS011;62116;43.582;1.470;2022-12-07T05:59:43;29.60;;;16.63;;
65583;SDS011;62116;43.582;1.470;2022-12-07T06:02:09;27.70;;;16.35;;
65583;SDS011;62116;43.582;1.470;2022-12-07T06:04:38;29.50;;;16.75;;
65583;SDS011;62116;43.582;1.470;2022-12-07T06:07:05;28.85;;;16.13;;
65583;SDS011;62116;43.582;1.470;2022-12-07T06:09:31;27.83;;;16.38;;
65583;SDS011;62116;43.582;1.470;2022-12-07T06:11:57;27.90;;;16.35;;
65583;SDS011;62116;43.582;1.470;2022-12-07T06:14:41;30.13;;;16.08;;
65583;SDS011;62116;43.582;1.470;2022-12-07T06:17:07;28.90;;;16.15;;
65583;SDS011;62116;43.582;1.470;2022-12-07T06:19:33;28.25;;;16.08;;
65583;SDS011;62116;43.582;1.470;2022-12-07T06:21:59;28.52;;;15.88;;
65583;SDS011;62116;43.582;1.470;2022-12-07T06:24:24;28.08;;;16.42;;
65583;SDS011;62116;43.582;1.470;2022-12-07T06:26:50;32.75;;;16.88;;
65583;SDS011;62116;43.582;1.470;2022-12-07T06:29:16;33.10;;;16.30;;
65583;SDS011;62116;43.582;1.470;2022-12-07T06:31:42;28.55;;;15.80;;
65583;SDS011;62116;43.582;1.470;2022-12-07T06:34:11;32.30;;;16.50;;
65583;SDS011;62116;43.582;1.470;2022-12-07T06:36:38;28.90;;;16.35;;
65583;SDS011;62116;43.582;1.470;2022-12-07T06:39:04;29.67;;;16.60;;
65583;SDS011;62116;43.582;1.470;2022-12-07T06:41:30;31.15;;;16.45;;
65583;SDS011;62116;43.582;1.470;2022-12-07T06:43:56;27.75;;;15.60;;
65583;SDS011;62116;43.582;1.470;2022-12-07T06:46:22;29.92;;;16.05;;
65583;SDS011;62116;43.582;1.470;2022-12-07T06:48:48;31.65;;;16.10;;
65583;SDS011;62116;43.582;1.470;2022-12-07T06:51:13;34.45;;;16.30;;
65583;SDS011;62116;43.582;1.470;2022-12-07T06:53:39;28.80;;;16.02;;
65583;SDS011;62116;43.582;1.470;2022-12-07T06:56:04;30.95;;;16.98;;
65583;SDS011;62116;43.582;1.470;2022-12-07T06:58:30;29.95;;;16.75;;
65583;SDS011;62116;43.582;1.470;2022-12-07T07:00:55;30.98;;;16.25;;
65583;SDS011;62116;43.582;1.470;2022-12-07T07:03:21;29.88;;;16.52;;
65583;SDS011;62116;43.582;1.470;2022-12-07T07:05:46;31.02;;;16.02;;
65583;SDS011;62116;43.582;1.470;2022-12-07T07:08:12;31.30;;;16.45;;
65583;SDS011;62116;43.582;1.470;2022-12-07T07:10:38;29.52;;;16.60;;
65583;SDS011;62116;43.582;1.470;2022-12-07T07:13:04;32.72;;;16.45;;
65583;SDS011;62116;43.582;1.470;2022-12-07T07:15:30;33.38;;;16.27;;
65583;SDS011;62116;43.582;1.470;2022-12-07T07:17:55;27.27;;;16.30;;
65583;SDS011;62116;43.582;1.470;2022-12-07T07:20:20;28.55;;;15.85;;
65583;SDS011;62116;43.582;1.470;2022-12-07T07:22:47;29.70;;;16.88;;
65583;SDS011;62116;43.582;1.470;2022-12-07T07:25:13;31.75;;;17.10;;
65583;SDS011;62116;43.582;1.470;2022-12-07T07:27:38;30.00;;;16.52;;
65583;SDS011;62116;43.582;1.470;2022-12-07T07:30:04;30.63;;;16.67;;
65583;SDS011;62116;43.582;1.470;2022-12-07T07:32:30;36.03;;;16.38;;
65583;SDS011;62116;43.582;1.470;2022-12-07T07:34:55;28.50;;;15.48;;
65583;SDS011;62116;43.582;1.470;2022-12-07T07:37:21;32.15;;;16.73;;
65583;SDS011;62116;43.582;1.470;2022-12-07T07:39:46;27.70;;;16.05;;
65583;SDS011;62116;43.582;1.470;2022-12-07T07:42:12;47.35;;;17.35;;
65583;SDS011;62116;43.582;1.470;2022-12-07T07:44:37;32.55;;;17.58;;
65583;SDS011;62116;43.582;1.470;2022-12-07T07:47:03;53.78;;;22.10;;
65583;SDS011;62116;43.582;1.470;2022-12-07T07:49:28;59.70;;;23.20;;
65583;SDS011;62116;43.582;1.470;2022-12-07T07:51:54;98.13;;;35.00;;
65583;SDS011;62116;43.582;1.470;2022-12-07T07:54:19;110.28;;;37.58;;
65583;SDS011;62116;43.582;1.470;2022-12-07T07:56:45;68.38;;;28.60;;
65583;SDS011;62116;43.582;1.470;2022-12-07T07:59:10;49.95;;;23.65;;
65583;SDS011;62116;43.582;1.470;2022-12-07T08:01:35;44.03;;;21.55;;
65583;SDS011;62116;43.582;1.470;2022-12-07T08:04:01;48.33;;;23.48;;
65583;SDS011;62116;43.582;1.470;2022-12-07T08:06:26;42.47;;;21.35;;
65583;SDS011;62116;43.582;1.470;2022-12-07T08:08:52;34.17;;;19.83;;
65583;SDS011;62116;43.582;1.470;2022-12-07T08:11:17;39.95;;;18.52;;
65583;SDS011;62116;43.582;1.470;2022-12-07T08:13:45;37.03;;;18.38;;
65583;SDS011;62116;43.582;1.470;2022-12-07T08:16:12;41.78;;;18.95;;
65583;SDS011;62116;43.582;1.470;2022-12-07T08:18:39;34.25;;;18.35;;
65583;SDS011;62116;43.582;1.470;2022-12-07T08:21:06;36.50;;;18.48;;
65583;SDS011;62116;43.582;1.470;2022-12-07T08:23:32;35.15;;;17.85;;
65583;SDS011;62116;43.582;1.470;2022-12-07T08:26:05;34.22;;;19.15;;
65583;SDS011;62116;43.582;1.470;2022-12-07T08:28:33;34.55;;;17.95;;
65583;SDS011;62116;43.582;1.470;2022-12-07T08:30:59;34.28;;;17.15;;
65583;SDS011;62116;43.582;1.470;2022-12-07T08:33:25;33.97;;;18.05;;
65583;SDS011;62116;43.582;1.470;2022-12-07T08:35:51;32.72;;;17.08;;
65583;SDS011;62116;43.582;1.470;2022-12-07T08:38:16;32.45;;;18.00;;
65583;SDS011;62116;43.582;1.470;2022-12-07T08:40:42;33.25;;;18.67;;
65583;SDS011;62116;43.582;1.470;2022-12-07T08:43:07;33.78;;;18.15;;
65583;SDS011;62116;43.582;1.470;2022-12-07T08:45:32;33.33;;;18.58;;
65583;SDS011;62116;43.582;1.470;2022-12-07T08:48:04;35.95;;;19.08;;
65583;SDS011;62116;43.582;1.470;2022-12-07T08:50:33;34.22;;;17.75;;
65583;SDS011;62116;43.582;1.470;2022-12-07T08:52:59;35.53;;;18.88;;
65583;SDS011;62116;43.582;1.470;2022-12-07T08:55:26;37.90;;;18.50;;
65583;SDS011;62116;43.582;1.470;2022-12-07T08:57:52;32.15;;;18.60;;
65583;SDS011;62116;43.582;1.470;2022-12-07T09:00:18;37.78;;;19.08;;
65583;SDS011;62116;43.582;1.470;2022-12-07T09:02:44;32.53;;;17.90;;
65583;SDS011;62116;43.582;1.470;2022-12-07T09:05:10;32.08;;;18.10;;
65583;SDS011;62116;43.582;1.470;2022-12-07T09:07:36;33.15;;;18.58;;
65583;SDS011;62116;43.582;1.470;2022-12-07T09:10:03;37.83;;;18.58;;
65583;SDS011;62116;43.582;1.470;2022-12-07T09:12:29;33.65;;;17.88;;
65583;SDS011;62116;43.582;1.470;2022-12-07T09:14:55;33.10;;;17.98;;
65583;SDS011;62116;43.582;1.470;2022-12-07T09:17:21;35.58;;;18.00;;
65583;SDS011;62116;43.582;1.470;2022-12-07T09:19:46;35.17;;;17.92;;
65583;SDS011;62116;43.582;1.470;2022-12-07T09:22:11;30.50;;;17.65;;
65583;SDS011;62116;43.582;1.470;2022-12-07T09:24:37;34.60;;;18.23;;
65583;SDS011;62116;43.582;1.470;2022-12-07T09:27:02;32.28;;;17.08;;
65583;SDS011;62116;43.582;1.470;2022-12-07T09:29:28;28.00;;;16.50;;
65583;SDS011;62116;43.582;1.470;2022-12-07T09:31:53;35.03;;;16.90;;
65583;SDS011;62116;43.582;1.470;2022-12-07T09:34:19;27.08;;;16.77;;
65583;SDS011;62116;43.582;1.470;2022-12-07T09:36:45;27.10;;;16.20;;
65583;SDS011;62116;43.582;1.470;2022-12-07T09:39:11;27.13;;;15.60;;
65583;SDS011;62116;43.582;1.470;2022-12-07T09:41:40;30.17;;;15.63;;
65583;SDS011;62116;43.582;1.470;2022-12-07T09:46:39;23.77;;;13.32;;
65583;SDS011;62116;43.582;1.470;2022-12-07T09:49:11;22.42;;;12.38;;
65583;SDS011;62116;43.582;1.470;2022-12-07T09:51:38;21.63;;;12.43;;
65583;SDS011;62116;43.582;1.470;2022-12-07T09:54:03;21.30;;;11.55;;
65583;SDS011;62116;43.582;1.470;2022-12-07T09:56:29;22.52;;;10.98;;
65583;SDS011;62116;43.582;1.470;2022-12-07T09:58:59;19.70;;;10.48;;
65583;SDS011;62116;43.582;1.470;2022-12-07T10:01:28;23.58;;;11.50;;
65583;SDS011;62116;43.582;1.470;2022-12-07T10:04:00;23.73;;;10.75;;
65583;SDS011;62116;43.582;1.470;2022-12-07T10:06:34;19.60;;;10.27;;
65583;SDS011;62116;43.582;1.470;2022-12-07T10:09:00;15.95;;;9.15;;
65583;SDS011;62116;43.582;1.470;2022-12-07T10:11:25;15.48;;;8.82;;
65583;SDS011;62116;43.582;1.470;2022-12-07T10:13:51;16.30;;;8.57;;
65583;SDS011;62116;43.582;1.470;2022-12-07T10:18:50;14.60;;;8.48;;
65583;SDS011;62116;43.582;1.470;2022-12-07T10:21:17;13.23;;;8.38;;
65583;SDS011;62116;43.582;1.470;2022-12-07T10:24:04;17.48;;;9.68;;
65583;SDS011;62116;43.582;1.470;2022-12-07T10:26:54;16.67;;;9.88;;
65583;SDS011;62116;43.582;1.470;2022-12-07T10:29:29;18.17;;;10.55;;
65583;SDS011;62116;43.582;1.470;2022-12-07T10:32:02;18.52;;;9.77;;
65583;SDS011;62116;43.582;1.470;2022-12-07T10:34:50;15.30;;;9.07;;
65583;SDS011;62116;43.582;1.470;2022-12-07T10:37:39;12.40;;;8.27;;
65583;SDS011;62116;43.582;1.470;2022-12-07T10:40:18;10.60;;;7.50;;
65583;SDS011;62116;43.582;1.470;2022-12-07T10:43:00;11.30;;;7.25;;
65583;SDS011;62116;43.582;1.470;2022-12-07T10:51:41;13.40;;;7.57;;
65583;SDS011;62116;43.582;1.470;2022-12-07T11:08:18;13.82;;;8.10;;
65583;SDS011;62116;43.582;1.470;2022-12-07T11:13:37;13.55;;;8.70;;
65583;SDS011;62116;43.582;1.470;2022-12-07T11:19:13;13.90;;;8.18;;
65583;SDS011;62116;43.582;1.470;2022-12-07T11:30:13;17.20;;;9.02;;
65583;SDS011;62116;43.582;1.470;2022-12-07T11:32:58;15.40;;;8.45;;
65583;SDS011;62116;43.582;1.470;2022-12-07T11:35:38;14.95;;;8.52;;
65583;SDS011;62116;43.582;1.470;2022-12-07T11:38:16;13.68;;;8.07;;
65583;SDS011;62116;43.582;1.470;2022-12-07T11:40:48;11.85;;;7.55;;
65583;SDS011;62116;43.582;1.470;2022-12-07T11:43:23;12.68;;;7.40;;
65583;SDS011;62116;43.582;1.470;2022-12-07T11:45:55;13.80;;;7.35;;
65583;SDS011;62116;43.582;1.470;2022-12-07T11:51:03;9.77;;;6.32;;
65583;SDS011;62116;43.582;1.470;2022-12-07T11:53:55;12.63;;;7.00;;
65583;SDS011;62116;43.582;1.470;2022-12-07T11:56:26;12.10;;;6.75;;
65583;SDS011;62116;43.582;1.470;2022-12-07T12:05:12;10.00;;;6.28;;
65583;SDS011;62116;43.582;1.470;2022-12-07T12:07:17;12.82;;;6.03;;
65583;SDS011;62116;43.582;1.470;2022-12-07T12:09:52;10.00;;;5.88;;
65583;SDS011;62116;43.582;1.470;2022-12-07T12:20:41;13.63;;;6.38;;
65583;SDS011;62116;43.582;1.470;2022-12-07T12:25:45;11.30;;;6.43;;
65583;SDS011;62116;43.582;1.470;2022-12-07T12:28:34;12.85;;;6.30;;
65583;SDS011;62116;43.582;1.470;2022-12-07T12:31:09;12.85;;;6.63;;
65583;SDS011;62116;43.582;1.470;2022-12-07T12:33:57;11.43;;;6.53;;
65583;SDS011;62116;43.582;1.470;2022-12-07T12:59:41;11.07;;;5.80;;
65583;SDS011;62116;43.582;1.470;2022-12-07T13:15:53;17.63;;;7.10;;
65583;SDS011;62116;43.582;1.470;2022-12-07T13:29:15;12.10;;;6.10;;
65583;SDS011;62116;43.582;1.470;2022-12-07T13:31:43;9.50;;;5.78;;
65583;SDS011;62116;43.582;1.470;2022-12-07T13:36:54;12.00;;;6.20;;
65583;SDS011;62116;43.582;1.470;2022-12-07T13:39:21;13.20;;;6.10;;
65583;SDS011;62116;43.582;1.470;2022-12-07T13:41:50;11.52;;;6.07;;
65583;SDS011;62116;43.582;1.470;2022-12-07T13:44:34;9.32;;;5.93;;
65583;SDS011;62116;43.582;1.470;2022-12-07T13:49:38;10.52;;;5.68;;
65583;SDS011;62116;43.582;1.470;2022-12-07T13:54:55;9.25;;;5.30;;
65583;SDS011;62116;43.582;1.470;2022-12-07T13:57:22;11.03;;;5.77;;
65583;SDS011;62116;43.582;1.470;2022-12-07T13:59:50;9.45;;;5.20;;
65583;SDS011;62116;43.582;1.470;2022-12-07T14:02:21;8.45;;;4.80;;
65583;SDS011;62116;43.582;1.470;2022-12-07T14:07:48;8.63;;;4.47;;
65583;SDS011;62116;43.582;1.470;2022-12-07T14:10:23;7.72;;;4.32;;
65583;SDS011;62116;43.582;1.470;2022-12-07T14:12:50;6.65;;;4.00;;
65583;SDS011;62116;43.582;1.470;2022-12-07T14:15:20;6.85;;;4.10;;
65583;SDS011;62116;43.582;1.470;2022-12-07T14:17:52;7.93;;;4.18;;
65583;SDS011;62116;43.582;1.470;2022-12-07T14:22:58;9.73;;;4.30;;
65583;SDS011;62116;43.582;1.470;2022-12-07T14:25:25;7.85;;;4.07;;
65583;SDS011;62116;43.582;1.470;2022-12-07T14:30:29;11.52;;;4.18;;
65583;SDS011;62116;43.582;1.470;2022-12-07T14:33:01;11.25;;;4.78;;
65583;SDS011;62116;43.582;1.470;2022-12-07T14:37:54;9.95;;;4.30;;
65583;SDS011;62116;43.582;1.470;2022-12-07T14:40:21;8.68;;;4.40;;
65583;SDS011;62116;43.582;1.470;2022-12-07T14:42:49;8.95;;;4.32;;
65583;SDS011;62116;43.582;1.470;2022-12-07T14:45:21;8.02;;;4.22;;
65583;SDS011;62116;43.582;1.470;2022-12-07T14:47:48;7.57;;;4.57;;
65583;SDS011;62116;43.582;1.470;2022-12-07T14:50:14;7.68;;;4.43;;
65583;SDS011;62116;43.582;1.470;2022-12-07T14:52:43;8.88;;;4.18;;
65583;SDS011;62116;43.582;1.470;2022-12-07T14:55:14;7.63;;;4.60;;
65583;SDS011;62116;43.582;1.470;2022-12-07T14:57:50;7.80;;;4.32;;
65583;SDS011;62116;43.582;1.470;2022-12-07T15:00:16;10.80;;;4.80;;
65583;SDS011;62116;43.582;1.470;2022-12-07T15:02:42;9.70;;;5.13;;
65583;SDS011;62116;43.582;1.470;2022-12-07T15:05:09;10.13;;;5.38;;
65583;SDS011;62116;43.582;1.470;2022-12-07T15:07:34;12.55;;;5.60;;
65583;SDS011;62116;43.582;1.470;2022-12-07T15:10:00;10.43;;;5.22;;
65583;SDS011;62116;43.582;1.470;2022-12-07T15:12:25;12.38;;;5.32;;
65583;SDS011;62116;43.582;1.470;2022-12-07T15:14:52;11.77;;;5.90;;
65583;SDS011;62116;43.582;1.470;2022-12-07T15:17:17;9.32;;;5.78;;
65583;SDS011;62116;43.582;1.470;2022-12-07T15:19:43;10.77;;;6.43;;
65583;SDS011;62116;43.582;1.470;2022-12-07T15:22:08;11.63;;;5.90;;
65583;SDS011;62116;43.582;1.470;2022-12-07T15:24:35;12.77;;;6.40;;
65583;SDS011;62116;43.582;1.470;2022-12-07T15:27:01;16.08;;;6.25;;
65583;SDS011;62116;43.582;1.470;2022-12-07T15:29:27;12.18;;;6.47;;
65583;SDS011;62116;43.582;1.470;2022-12-07T15:31:52;9.55;;;6.20;;
65583;SDS011;62116;43.582;1.470;2022-12-07T15:34:18;12.38;;;6.82;;
65583;SDS011;62116;43.582;1.470;2022-12-07T15:36:43;22.55;;;7.35;;
65583;SDS011;62116;43.582;1.470;2022-12-07T15:39:09;31.20;;;8.05;;
65583;SDS011;62116;43.582;1.470;2022-12-07T15:41:35;21.85;;;6.78;;
65583;SDS011;62116;43.582;1.470;2022-12-07T15:44:00;15.60;;;6.10;;
65583;SDS011;62116;43.582;1.470;2022-12-07T15:46:44;11.35;;;5.57;;
65583;SDS011;62116;43.582;1.470;2022-12-07T15:49:14;13.77;;;5.80;;
65583;SDS011;62116;43.582;1.470;2022-12-07T15:51:41;12.23;;;6.28;;
65583;SDS011;62116;43.582;1.470;2022-12-07T15:54:29;12.80;;;7.00;;
65583;SDS011;62116;43.582;1.470;2022-12-07T15:56:54;24.65;;;10.95;;
65583;SDS011;62116;43.582;1.470;2022-12-07T15:59:20;33.38;;;14.18;;
65583;SDS011;62116;43.582;1.470;2022-12-07T16:01:46;26.55;;;12.88;;
65583;SDS011;62116;43.582;1.470;2022-12-07T16:04:11;23.90;;;10.77;;
65583;SDS011;62116;43.582;1.470;2022-12-07T16:06:37;23.50;;;10.32;;
65583;SDS011;62116;43.582;1.470;2022-12-07T16:09:03;21.42;;;10.13;;
65583;SDS011;62116;43.582;1.470;2022-12-07T16:11:29;23.42;;;10.95;;
65583;SDS011;62116;43.582;1.470;2022-12-07T16:13:54;18.65;;;9.00;;
65583;SDS011;62116;43.582;1.470;2022-12-07T16:16:20;14.70;;;7.50;;
65583;SDS011;62116;43.582;1.470;2022-12-07T16:18:47;14.77;;;7.35;;
65583;SDS011;62116;43.582;1.470;2022-12-07T16:21:13;14.68;;;6.70;;
65583;SDS011;62116;43.582;1.470;2022-12-07T16:23:39;12.65;;;6.65;;
65583;SDS011;62116;43.582;1.470;2022-12-07T16:26:08;11.52;;;6.13;;
65583;SDS011;62116;43.582;1.470;2022-12-07T16:28:36;12.73;;;6.30;;
65583;SDS011;62116;43.582;1.470;2022-12-07T16:31:05;11.18;;;5.82;;
65583;SDS011;62116;43.582;1.470;2022-12-07T16:33:36;11.93;;;6.35;;
65583;SDS011;62116;43.582;1.470;2022-12-07T16:36:03;9.32;;;5.45;;
65583;SDS011;62116;43.582;1.470;2022-12-07T16:38:30;12.23;;;5.43;;
65583;SDS011;62116;43.582;1.470;2022-12-07T16:40:55;13.35;;;6.18;;
65583;SDS011;62116;43.582;1.470;2022-12-07T16:43:21;11.65;;;6.32;;
65583;SDS011;62116;43.582;1.470;2022-12-07T16:45:46;14.95;;;6.07;;
65583;SDS011;62116;43.582;1.470;2022-12-07T16:48:16;14.40;;;6.13;;
65583;SDS011;62116;43.582;1.470;2022-12-07T16:50:42;11.43;;;6.03;;
65583;SDS011;62116;43.582;1.470;2022-12-07T16:53:09;14.07;;;5.82;;
65583;SDS011;62116;43.582;1.470;2022-12-07T16:55:38;10.65;;;5.80;;
65583;SDS011;62116;43.582;1.470;2022-12-07T16:58:06;12.90;;;6.28;;
65583;SDS011;62116;43.582;1.470;2022-12-07T17:00:32;13.38;;;6.43;;
65583;SDS011;62116;43.582;1.470;2022-12-07T17:02:58;14.90;;;6.40;;
65583;SDS011;62116;43.582;1.470;2022-12-07T17:05:24;10.32;;;5.82;;
65583;SDS011;62116;43.582;1.470;2022-12-07T17:07:50;15.23;;;7.40;;
65583;SDS011;62116;43.582;1.470;2022-12-07T17:10:15;13.75;;;7.38;;
65583;SDS011;62116;43.582;1.470;2022-12-07T17:12:41;22.95;;;11.45;;
65583;SDS011;62116;43.582;1.470;2022-12-07T17:15:07;18.25;;;9.35;;
65583;SDS011;62116;43.582;1.470;2022-12-07T17:17:58;19.80;;;9.00;;